Time;durP1;ratioP1;P1;durP2;ratioP2;P2;SDS_P1;SDS_P2;PMS_P1;PMS_P2;Temp;Humidity;BMP_temperature;BMP_pressure;BME280_temperature;BME280_humidity;BME280_pressure;Samples;Min_cycle;Max_cycle;Signal;HPM_P1;HPM_P2
2022/11/26 00:00:50;;;;;;;70.70;23.53;;;;;;;;;;5021987;28;20316;-68
2022/11/26 00:03:16;;;;;;;68.27;23.00;;;;;;;;;;5018446;28;20182;-68
2022/11/26 00:05:45;;;;;;;69.90;21.77;;;;;;;;;;5021277;28;20197;-68
2022/11/26 00:08:18;;;;;;;52.90;21.90;;;;;;;;;;5032378;28;20555;-68
2022/11/26 00:10:43;;;;;;;63.03;23.23;;;;;;;;;;5021899;28;20205;-69
2022/11/26 00:13:15;;;;;;;48.77;21.10;;;;;;;;;;5018273;28;20643;-69
2022/11/26 00:15:41;;;;;;;66.93;21.33;;;;;;;;;;5017702;28;20238;-69
2022/11/26 00:18:06;;;;;;;61.73;22.30;;;;;;;;;;5012765;28;20270;-69
2022/11/26 00:20:31;;;;;;;69.60;22.63;;;;;;;;;;5022790;28;20214;-69
2022/11/26 00:23:03;;;;;;;75.20;23.17;;;;;;;;;;5032023;28;20190;-69
2022/11/26 00:25:42;;;;;;;64.20;23.90;;;;;;;;;;5031256;28;20178;-69
2022/11/26 00:28:24;;;;;;;64.83;23.03;;;;;;;;;;5027362;28;20183;-69
2022/11/26 00:30:50;;;;;;;65.23;23.93;;;;;;;;;;5031751;28;20190;-69
2022/11/26 00:33:16;;;;;;;71.67;24.97;;;;;;;;;;5014338;28;20275;-68
2022/11/26 00:35:41;;;;;;;77.23;25.73;;;;;;;;;;5017427;28;20592;-68
2022/11/26 00:38:13;;;;;;;80.57;25.70;;;;;;;;;;5015370;28;20194;-68
2022/11/26 00:40:40;;;;;;;90.93;26.50;;;;;;;;;;5022165;28;20183;-69
2022/11/26 00:43:05;;;;;;;70.00;26.10;;;;;;;;;;5027025;28;20209;-69
2022/11/26 00:45:30;;;;;;;78.43;28.10;;;;;;;;;;5025744;28;20493;-69
2022/11/26 00:48:00;;;;;;;72.47;24.87;;;;;;;;;;5017615;28;20265;-69
2022/11/26 00:50:27;;;;;;;66.17;24.57;;;;;;;;;;5026869;28;20188;-69
2022/11/26 00:52:54;;;;;;;65.40;25.63;;;;;;;;;;5015417;28;20235;-69
2022/11/26 00:55:27;;;;;;;64.57;24.30;;;;;;;;;;5029827;28;20224;-69
2022/11/26 00:57:52;;;;;;;67.13;25.30;;;;;;;;;;5025477;28;20190;-69
2022/11/26 01:00:20;;;;;;;68.20;25.90;;;;;;;;;;5030180;28;20599;-69
2022/11/26 01:02:46;;;;;;;70.33;24.83;;;;;;;;;;5025963;28;20174;-69
2022/11/26 01:05:12;;;;;;;67.30;25.33;;;;;;;;;;5018981;28;20174;-69
2022/11/26 01:07:39;;;;;;;61.40;24.40;;;;;;;;;;5016113;28;20617;-69
2022/11/26 01:10:05;;;;;;;70.63;25.17;;;;;;;;;;5018556;28;20583;-69
2022/11/26 01:12:32;;;;;;;67.83;24.60;;;;;;;;;;5020720;28;20174;-69
2022/11/26 01:14:57;;;;;;;51.17;23.63;;;;;;;;;;5028288;28;20660;-69
2022/11/26 01:17:22;;;;;;;64.40;23.60;;;;;;;;;;5023760;28;20221;-69
2022/11/26 01:19:48;;;;;;;59.07;23.23;;;;;;;;;;5023042;28;20203;-69
2022/11/26 01:22:21;;;;;;;65.40;24.80;;;;;;;;;;5027814;28;20600;-69
2022/11/26 01:24:47;;;;;;;71.50;24.37;;;;;;;;;;5024663;28;20213;-69
2022/11/26 01:27:12;;;;;;;62.97;23.83;;;;;;;;;;5020216;28;20236;-69
2022/11/26 01:29:37;;;;;;;73.37;24.30;;;;;;;;;;5029106;28;20186;-69
2022/11/26 01:32:03;;;;;;;58.83;23.87;;;;;;;;;;5030028;28;20206;-69
2022/11/26 01:34:29;;;;;;;62.80;23.80;;;;;;;;;;5029464;28;20197;-69
2022/11/26 01:36:54;;;;;;;60.70;23.50;;;;;;;;;;5023399;28;20283;-69
2022/11/26 01:39:21;;;;;;;67.47;24.13;;;;;;;;;;5029923;28;20182;-69
2022/11/26 01:42:35;;;;;;;71.57;25.47;;;;;;;;;;5022690;28;20211;-69
2022/11/26 01:45:01;;;;;;;58.07;21.77;;;;;;;;;;4979895;28;20294;-69
2022/11/26 01:47:28;;;;;;;66.00;24.33;;;;;;;;;;4988024;28;20309;-69
2022/11/26 01:50:28;;;;;;;73.30;23.47;;;;;;;;;;5007232;28;20273;-69
2022/11/26 01:53:25;;;;;;;65.13;25.30;;;;;;;;;;5018139;28;20608;-69
2022/11/26 01:55:55;;;;;;;58.07;21.87;;;;;;;;;;5024208;28;20613;-69
2022/11/26 01:58:32;;;;;;;53.00;23.87;;;;;;;;;;5016990;28;20178;-69
2022/11/26 02:00:58;;;;;;;68.87;24.57;;;;;;;;;;5021149;28;20521;-69
2022/11/26 02:03:25;;;;;;;53.47;20.50;;;;;;;;;;5027569;28;20197;-69
2022/11/26 02:05:57;;;;;;;74.70;23.90;;;;;;;;;;5028521;28;20189;-69
2022/11/26 02:08:25;;;;;;;65.87;21.67;;;;;;;;;;5019575;28;20186;-69
2022/11/26 02:10:51;;;;;;;66.67;23.43;;;;;;;;;;5010695;28;20213;-69
2022/11/26 02:13:17;;;;;;;60.03;22.83;;;;;;;;;;5019319;28;20197;-69
2022/11/26 02:16:14;;;;;;;63.07;21.90;;;;;;;;;;5021030;28;20202;-69
2022/11/26 02:18:44;;;;;;;66.90;22.43;;;;;;;;;;5021830;28;20193;-69
2022/11/26 02:21:19;;;;;;;60.50;24.80;;;;;;;;;;5014818;28;20629;-69
2022/11/26 02:24:07;;;;;;;70.10;23.33;;;;;;;;;;5013931;28;20198;-69
2022/11/26 02:26:58;;;;;;;57.97;22.63;;;;;;;;;;5029314;28;20180;-69
2022/11/26 02:30:06;;;;;;;58.60;21.63;;;;;;;;;;5016718;28;20183;-69
2022/11/26 02:32:38;;;;;;;41.03;18.97;;;;;;;;;;5014847;28;20814;-69
2022/11/26 02:35:24;;;;;;;58.27;22.57;;;;;;;;;;5022464;28;20210;-69
2022/11/26 02:37:55;;;;;;;54.27;19.47;;;;;;;;;;5023998;28;20589;-69
2022/11/26 02:40:23;;;;;;;63.87;22.23;;;;;;;;;;5025166;28;20240;-69
2022/11/26 02:42:48;;;;;;;50.53;21.30;;;;;;;;;;5020779;28;20565;-69
2022/11/26 02:45:21;;;;;;;70.63;22.17;;;;;;;;;;5017821;28;20182;-69
2022/11/26 02:47:49;;;;;;;55.57;22.50;;;;;;;;;;5021738;28;20566;-69
2022/11/26 02:50:25;;;;;;;49.50;20.33;;;;;;;;;;5015958;28;20248;-69
2022/11/26 02:52:53;;;;;;;58.43;21.23;;;;;;;;;;5010052;28;20191;-69
2022/11/26 02:55:23;;;;;;;58.60;22.37;;;;;;;;;;5027459;28;20221;-69
2022/11/26 02:57:50;;;;;;;72.80;22.80;;;;;;;;;;5025024;28;20182;-69
2022/11/26 03:00:17;;;;;;;48.33;19.83;;;;;;;;;;5018911;28;20183;-69
2022/11/26 03:02:42;;;;;;;59.40;21.50;;;;;;;;;;5022867;28;20216;-69
2022/11/26 03:05:09;;;;;;;53.43;21.20;;;;;;;;;;5021467;28;20214;-69
2022/11/26 03:07:35;;;;;;;59.30;22.23;;;;;;;;;;5020767;28;20248;-69
2022/11/26 03:10:01;;;;;;;55.53;22.17;;;;;;;;;;5012085;28;20229;-69
2022/11/26 03:12:28;;;;;;;63.23;21.93;;;;;;;;;;5027037;28;20581;-69
2022/11/26 03:14:53;;;;;;;56.63;21.87;;;;;;;;;;5027102;28;20188;-69
2022/11/26 03:17:19;;;;;;;63.47;22.17;;;;;;;;;;5028066;28;20193;-69
2022/11/26 03:19:45;;;;;;;54.63;22.20;;;;;;;;;;5021457;28;20269;-69
2022/11/26 03:22:12;;;;;;;77.47;26.17;;;;;;;;;;5020916;28;20178;-69
2022/11/26 03:24:37;;;;;;;84.67;28.40;;;;;;;;;;5024684;28;20207;-69
2022/11/26 03:27:03;;;;;;;66.90;27.37;;;;;;;;;;5027175;28;20262;-69
2022/11/26 03:29:28;;;;;;;68.27;24.67;;;;;;;;;;5013868;28;20214;-69
2022/11/26 03:31:54;;;;;;;89.23;29.03;;;;;;;;;;5018515;28;20252;-69
2022/11/26 03:34:19;;;;;;;76.50;28.17;;;;;;;;;;5015405;28;20186;-69
2022/11/26 03:36:45;;;;;;;82.27;30.70;;;;;;;;;;5023033;28;20288;-70
2022/11/26 03:39:10;;;;;;;83.63;30.70;;;;;;;;;;5024448;28;20182;-69
2022/11/26 03:41:35;;;;;;;90.37;33.57;;;;;;;;;;5025716;28;20250;-69
2022/11/26 03:44:01;;;;;;;75.37;31.53;;;;;;;;;;5023882;28;20727;-69
2022/11/26 03:46:26;;;;;;;73.30;30.60;;;;;;;;;;5020526;28;20174;-69
2022/11/26 03:48:51;;;;;;;68.60;29.73;;;;;;;;;;5008712;28;20187;-69
2022/11/26 03:51:17;;;;;;;68.33;29.70;;;;;;;;;;5014796;28;20186;-69
2022/11/26 03:53:42;;;;;;;68.73;30.37;;;;;;;;;;5020244;28;20265;-69
2022/11/26 03:56:07;;;;;;;84.93;33.30;;;;;;;;;;5018572;28;20206;-70
2022/11/26 03:58:34;;;;;;;84.87;30.90;;;;;;;;;;5017621;28;20182;-69
2022/11/26 04:00:59;;;;;;;83.33;32.83;;;;;;;;;;5016656;28;20629;-69
2022/11/26 04:03:25;;;;;;;79.97;33.33;;;;;;;;;;5026257;28;20260;-69
2022/11/26 04:05:50;;;;;;;87.63;33.07;;;;;;;;;;5019109;28;20187;-69
2022/11/26 04:08:15;;;;;;;81.67;33.77;;;;;;;;;;5012967;28;20273;-69
2022/11/26 04:10:41;;;;;;;93.23;35.40;;;;;;;;;;5018982;28;20186;-69
2022/11/26 04:13:06;;;;;;;87.03;34.37;;;;;;;;;;5025057;28;20186;-69
2022/11/26 04:15:31;;;;;;;78.20;31.53;;;;;;;;;;5020613;28;20207;-69
2022/11/26 04:17:57;;;;;;;95.07;34.63;;;;;;;;;;5024316;28;20210;-69
2022/11/26 04:20:22;;;;;;;79.87;30.90;;;;;;;;;;5021484;28;20278;-69
2022/11/26 04:22:47;;;;;;;90.57;32.23;;;;;;;;;;5025731;28;20194;-69
2022/11/26 04:25:13;;;;;;;74.33;31.60;;;;;;;;;;5011408;28;20201;-69
2022/11/26 04:27:38;;;;;;;92.80;32.20;;;;;;;;;;5023182;28;20261;-69
2022/11/26 04:30:06;;;;;;;72.70;28.77;;;;;;;;;;5024795;28;20768;-69
2022/11/26 04:32:32;;;;;;;83.73;32.07;;;;;;;;;;5014422;28;20211;-69
2022/11/26 04:34:57;;;;;;;99.77;34.90;;;;;;;;;;5010317;28;20376;-69
2022/11/26 04:37:22;;;;;;;92.43;32.50;;;;;;;;;;5013846;28;20230;-69
2022/11/26 04:39:48;;;;;;;98.80;35.63;;;;;;;;;;5018027;28;20224;-69
2022/11/26 04:42:13;;;;;;;112.77;38.00;;;;;;;;;;5019932;28;20186;-69
2022/11/26 04:44:38;;;;;;;92.53;34.40;;;;;;;;;;5024161;28;20205;-70
2022/11/26 04:47:04;;;;;;;104.10;34.60;;;;;;;;;;5026697;28;20186;-69
2022/11/26 04:49:29;;;;;;;97.03;31.17;;;;;;;;;;5021209;28;20637;-69
2022/11/26 04:51:54;;;;;;;128.43;39.57;;;;;;;;;;5029472;28;20247;-69
2022/11/26 04:54:19;;;;;;;95.53;34.20;;;;;;;;;;5026747;28;20213;-69
2022/11/26 04:56:45;;;;;;;99.07;35.97;;;;;;;;;;5015784;28;20264;-69
2022/11/26 04:59:10;;;;;;;108.07;36.93;;;;;;;;;;5017446;28;20329;-69
2022/11/26 05:01:35;;;;;;;109.70;34.77;;;;;;;;;;5040192;28;20272;-69
2022/11/26 05:04:01;;;;;;;101.17;35.10;;;;;;;;;;5029491;28;20621;-69
2022/11/26 05:06:26;;;;;;;148.63;40.27;;;;;;;;;;5024525;28;20549;-69
2022/11/26 05:08:52;;;;;;;174.20;42.87;;;;;;;;;;5021384;28;20221;-69
2022/11/26 05:11:17;;;;;;;140.20;43.00;;;;;;;;;;5023399;28;20237;-69
2022/11/26 05:13:43;;;;;;;158.60;41.57;;;;;;;;;;5016960;28;20604;-69
2022/11/26 05:16:08;;;;;;;158.30;42.37;;;;;;;;;;5021843;28;20225;-69
2022/11/26 05:18:33;;;;;;;94.60;33.10;;;;;;;;;;5023087;28;20210;-70
2022/11/26 05:20:59;;;;;;;219.00;43.47;;;;;;;;;;5021685;28;20264;-69
2022/11/26 05:23:24;;;;;;;179.00;41.70;;;;;;;;;;5027953;28;20193;-69
2022/11/26 05:25:50;;;;;;;185.37;41.97;;;;;;;;;;5028472;28;20648;-69
2022/11/26 05:28:15;;;;;;;196.53;44.50;;;;;;;;;;5030036;28;20533;-69
2022/11/26 05:30:41;;;;;;;169.13;40.90;;;;;;;;;;5028318;28;20217;-69
2022/11/26 05:33:06;;;;;;;168.83;41.47;;;;;;;;;;5022256;28;20682;-69
2022/11/26 05:35:31;;;;;;;105.90;34.03;;;;;;;;;;5032594;28;20216;-70
2022/11/26 05:37:57;;;;;;;127.77;35.40;;;;;;;;;;5022297;28;20229;-69
2022/11/26 05:40:23;;;;;;;140.50;39.00;;;;;;;;;;5025827;28;20209;-69
2022/11/26 05:42:48;;;;;;;119.77;36.80;;;;;;;;;;5016772;28;20269;-70
2022/11/26 05:45:15;;;;;;;145.53;40.03;;;;;;;;;;5017986;28;20183;-69
2022/11/26 05:47:41;;;;;;;119.47;33.80;;;;;;;;;;5025397;28;20214;-70
2022/11/26 05:50:07;;;;;;;136.20;37.93;;;;;;;;;;5023101;28;20688;-69
2022/11/26 05:52:32;;;;;;;96.17;33.00;;;;;;;;;;5023629;28;20494;-69
2022/11/26 05:54:57;;;;;;;98.27;34.87;;;;;;;;;;5017770;28;20220;-69
2022/11/26 05:57:23;;;;;;;131.57;36.77;;;;;;;;;;5026683;28;20182;-69
2022/11/26 05:59:48;;;;;;;93.57;32.10;;;;;;;;;;5014832;28;20466;-69
2022/11/26 06:02:13;;;;;;;138.83;38.00;;;;;;;;;;5013499;28;20240;-69
2022/11/26 06:04:39;;;;;;;108.23;34.40;;;;;;;;;;5015419;28;20278;-69
2022/11/26 06:07:04;;;;;;;90.03;31.43;;;;;;;;;;5012177;28;20258;-69
2022/11/26 06:09:29;;;;;;;108.10;34.17;;;;;;;;;;5011066;28;20231;-69
2022/11/26 06:11:55;;;;;;;94.07;30.43;;;;;;;;;;5014820;28;20216;-69
2022/11/26 06:14:20;;;;;;;119.37;34.37;;;;;;;;;;5015317;28;20270;-69
2022/11/26 06:16:46;;;;;;;130.90;37.23;;;;;;;;;;5023540;28;20206;-69
2022/11/26 06:19:11;;;;;;;101.73;33.87;;;;;;;;;;5025344;28;20182;-69
2022/11/26 06:21:37;;;;;;;133.83;38.53;;;;;;;;;;5025236;28;20785;-69
2022/11/26 06:24:02;;;;;;;118.47;35.80;;;;;;;;;;5026299;28;20182;-70
2022/11/26 06:26:28;;;;;;;113.80;36.27;;;;;;;;;;5024759;28;20613;-69
2022/11/26 06:28:53;;;;;;;123.87;38.50;;;;;;;;;;5016129;28;20229;-69
2022/11/26 06:31:18;;;;;;;120.87;36.30;;;;;;;;;;5013822;28;20214;-70
2022/11/26 06:33:44;;;;;;;111.00;38.17;;;;;;;;;;5023424;28;20646;-69
2022/11/26 06:36:09;;;;;;;123.27;38.30;;;;;;;;;;5012884;28;20673;-69
2022/11/26 06:38:34;;;;;;;142.27;39.23;;;;;;;;;;5008246;28;20391;-69
2022/11/26 06:41:06;;;;;;;119.63;38.57;;;;;;;;;;5011902;28;20247;-69
2022/11/26 06:43:32;;;;;;;109.07;36.03;;;;;;;;;;5010611;28;20175;-69
2022/11/26 06:46:06;;;;;;;107.33;37.10;;;;;;;;;;5014887;28;20183;-69
2022/11/26 06:48:32;;;;;;;123.20;39.03;;;;;;;;;;5011144;28;20237;-69
2022/11/26 06:51:12;;;;;;;140.77;40.17;;;;;;;;;;5013995;28;20182;-69
2022/11/26 06:53:38;;;;;;;114.40;35.43;;;;;;;;;;5016755;28;20182;-69
2022/11/26 06:56:05;;;;;;;137.53;39.07;;;;;;;;;;5013096;28;20555;-69
2022/11/26 06:58:31;;;;;;;166.10;40.73;;;;;;;;;;5013256;28;20577;-69
2022/11/26 07:00:57;;;;;;;152.37;41.43;;;;;;;;;;5009245;28;20243;-69
2022/11/26 07:03:23;;;;;;;143.10;40.73;;;;;;;;;;5009588;28;20183;-69
2022/11/26 07:05:48;;;;;;;141.93;39.97;;;;;;;;;;5014891;28;20271;-69
2022/11/26 07:08:14;;;;;;;143.73;39.10;;;;;;;;;;5023953;28;20591;-69
2022/11/26 07:10:39;;;;;;;140.30;37.73;;;;;;;;;;5015921;28;20190;-69
2022/11/26 07:13:05;;;;;;;119.17;36.43;;;;;;;;;;5018466;28;20185;-69
2022/11/26 07:15:30;;;;;;;133.77;38.73;;;;;;;;;;5009433;28;20212;-69
2022/11/26 07:17:57;;;;;;;125.13;39.87;;;;;;;;;;5017723;28;20212;-69
2022/11/26 07:20:23;;;;;;;127.53;39.73;;;;;;;;;;5024526;28;20252;-69
2022/11/26 07:22:48;;;;;;;119.23;38.73;;;;;;;;;;5014167;28;20197;-69
2022/11/26 07:25:15;;;;;;;110.97;35.63;;;;;;;;;;5010230;28;20182;-68
2022/11/26 07:27:41;;;;;;;141.97;37.97;;;;;;;;;;5025562;28;20189;-68
2022/11/26 07:30:07;;;;;;;148.20;38.13;;;;;;;;;;5023673;28;20186;-68
2022/11/26 07:32:32;;;;;;;112.73;34.20;;;;;;;;;;5025796;28;20609;-68
2022/11/26 07:34:58;;;;;;;130.53;37.03;;;;;;;;;;5015235;28;20206;-68
2022/11/26 07:37:23;;;;;;;183.70;40.33;;;;;;;;;;5013921;28;20236;-69
2022/11/26 07:39:48;;;;;;;156.63;38.07;;;;;;;;;;5011318;28;20182;-70
2022/11/26 07:42:14;;;;;;;101.23;31.83;;;;;;;;;;5013247;28;20258;-69
2022/11/26 07:44:39;;;;;;;114.60;30.83;;;;;;;;;;5018356;28;20297;-69
2022/11/26 07:47:04;;;;;;;143.87;33.70;;;;;;;;;;5009906;28;20623;-71
2022/11/26 07:49:30;;;;;;;127.53;34.10;;;;;;;;;;5011007;28;20198;-70
2022/11/26 07:51:55;;;;;;;144.20;35.90;;;;;;;;;;5010162;28;20221;-70
2022/11/26 07:54:20;;;;;;;154.37;35.97;;;;;;;;;;5009831;28;20659;-69
2022/11/26 07:56:46;;;;;;;121.73;33.33;;;;;;;;;;5011243;28;20215;-68
2022/11/26 07:59:11;;;;;;;122.67;32.60;;;;;;;;;;5013230;28;20642;-71
2022/11/26 08:01:37;;;;;;;118.53;33.33;;;;;;;;;;5007903;28;20213;-70
2022/11/26 08:04:04;;;;;;;126.83;32.50;;;;;;;;;;5009943;28;20643;-69
2022/11/26 08:06:30;;;;;;;109.27;33.07;;;;;;;;;;5009690;28;20573;-69
2022/11/26 08:08:58;;;;;;;120.30;34.03;;;;;;;;;;5014760;28;20191;-69
2022/11/26 08:11:29;;;;;;;122.67;33.17;;;;;;;;;;5011269;28;20193;-69
2022/11/26 08:14:05;;;;;;;107.40;31.97;;;;;;;;;;5010512;28;20267;-70
2022/11/26 08:16:32;;;;;;;122.27;34.30;;;;;;;;;;5016089;28;20714;-69
2022/11/26 08:19:00;;;;;;;125.73;33.53;;;;;;;;;;5007424;28;20183;-70
2022/11/26 08:21:25;;;;;;;99.87;31.83;;;;;;;;;;5011583;28;20187;-69
2022/11/26 08:23:52;;;;;;;101.90;34.73;;;;;;;;;;5016815;28;20229;-69
2022/11/26 08:26:18;;;;;;;110.97;31.50;;;;;;;;;;5010839;28;20197;-69
2022/11/26 08:28:45;;;;;;;122.17;35.73;;;;;;;;;;5013402;28;20282;-69
2022/11/26 08:31:13;;;;;;;139.50;34.70;;;;;;;;;;5014705;28;20190;-69
2022/11/26 08:33:39;;;;;;;127.10;37.10;;;;;;;;;;5009118;28;20345;-69
2022/11/26 08:36:06;;;;;;;100.90;33.40;;;;;;;;;;5012449;28;20792;-69
2022/11/26 08:38:32;;;;;;;104.43;34.27;;;;;;;;;;5011510;28;20187;-68
2022/11/26 08:41:05;;;;;;;111.40;34.80;;;;;;;;;;5014236;28;20237;-69
2022/11/26 08:43:32;;;;;;;104.37;34.13;;;;;;;;;;5011826;28;20253;-69
2022/11/26 08:45:59;;;;;;;100.47;33.10;;;;;;;;;;5012414;28;20179;-69
2022/11/26 08:48:26;;;;;;;99.27;33.33;;;;;;;;;;5018938;28;20240;-69
2022/11/26 08:50:57;;;;;;;134.37;36.57;;;;;;;;;;5019574;28;20194;-68
2022/11/26 08:53:22;;;;;;;141.73;37.53;;;;;;;;;;5011126;28;20190;-68
2022/11/26 08:55:47;;;;;;;98.27;33.73;;;;;;;;;;5010200;28;20627;-68
2022/11/26 08:58:13;;;;;;;116.33;35.00;;;;;;;;;;5010926;28;20805;-68
2022/11/26 09:00:39;;;;;;;102.37;34.43;;;;;;;;;;5008484;28;20226;-68
2022/11/26 09:03:05;;;;;;;71.23;28.30;;;;;;;;;;5012994;28;20268;-67
2022/11/26 09:05:31;;;;;;;96.87;32.20;;;;;;;;;;5010421;28;20659;-67
2022/11/26 09:07:56;;;;;;;107.77;34.50;;;;;;;;;;5007492;28;20230;-67
2022/11/26 09:10:21;;;;;;;106.30;34.00;;;;;;;;;;5011959;28;20189;-67
2022/11/26 09:12:47;;;;;;;99.33;33.57;;;;;;;;;;5014901;28;20186;-67
2022/11/26 09:15:12;;;;;;;101.70;33.43;;;;;;;;;;5011169;28;20206;-67
2022/11/26 09:17:37;;;;;;;104.50;36.50;;;;;;;;;;5009258;28;20445;-67
2022/11/26 09:20:03;;;;;;;102.43;34.67;;;;;;;;;;5010531;28;20485;-67
2022/11/26 09:22:28;;;;;;;113.33;36.70;;;;;;;;;;5012987;28;20525;-68
2022/11/26 09:24:53;;;;;;;109.73;35.87;;;;;;;;;;5014891;28;20187;-67
2022/11/26 09:27:19;;;;;;;104.93;36.13;;;;;;;;;;5012538;28;20209;-67
2022/11/26 09:29:44;;;;;;;96.27;34.70;;;;;;;;;;5009281;28;20876;-67
2022/11/26 09:32:09;;;;;;;109.07;37.33;;;;;;;;;;5011655;28;20191;-69
2022/11/26 09:34:35;;;;;;;108.67;34.30;;;;;;;;;;5010730;28;20191;-67
2022/11/26 09:37:01;;;;;;;115.37;36.10;;;;;;;;;;5009435;28;20241;-68
2022/11/26 09:39:27;;;;;;;87.47;32.63;;;;;;;;;;5010045;28;20191;-67
2022/11/26 09:42:07;;;;;;;87.50;32.30;;;;;;;;;;5012859;28;20190;-67
2022/11/26 09:44:38;;;;;;;79.93;31.90;;;;;;;;;;5014536;28;20194;-67
2022/11/26 09:47:17;;;;;;;91.50;34.43;;;;;;;;;;5010449;28;21414;-67
2022/11/26 09:50:05;;;;;;;97.73;35.17;;;;;;;;;;5010988;28;20207;-69
2022/11/26 09:52:40;;;;;;;95.23;34.30;;;;;;;;;;5009200;28;20220;-69
2022/11/26 09:55:15;;;;;;;101.73;34.87;;;;;;;;;;5009644;28;20213;-69
2022/11/26 09:57:48;;;;;;;100.10;33.93;;;;;;;;;;5008136;28;20189;-68
2022/11/26 10:00:24;;;;;;;76.70;32.20;;;;;;;;;;5009874;28;20191;-68
2022/11/26 10:02:54;;;;;;;86.23;33.27;;;;;;;;;;5008762;28;20186;-67
2022/11/26 10:05:23;;;;;;;85.50;31.70;;;;;;;;;;5009984;28;20196;-67
2022/11/26 10:08:06;;;;;;;87.82;33.20;;;;;;;;;;5013156;28;20184;-67
2022/11/26 10:11:07;;;;;;;85.07;32.00;;;;;;;;;;5017312;28;20641;-67
2022/11/26 10:13:49;;;;;;;69.05;28.65;;;;;;;;;;5010209;28;20281;-67
2022/11/26 10:16:25;;;;;;;72.07;30.27;;;;;;;;;;5022333;28;20760;-67
2022/11/26 10:18:58;;;;;;;72.63;30.70;;;;;;;;;;5015818;28;20182;-67
2022/11/26 10:21:28;;;;;;;77.85;28.00;;;;;;;;;;5018712;28;20186;-67
2022/11/26 10:24:04;;;;;;;65.25;29.33;;;;;;;;;;5011055;28;20194;-67
2022/11/26 10:26:37;;;;;;;71.00;28.27;;;;;;;;;;5011730;28;20193;-67
2022/11/26 10:29:24;;;;;;;72.37;26.90;;;;;;;;;;5010711;28;20641;-67
2022/11/26 10:31:55;;;;;;;57.67;27.20;;;;;;;;;;5009681;28;20221;-67
2022/11/26 10:34:36;;;;;;;62.55;27.48;;;;;;;;;;5017840;28;20272;-67
2022/11/26 10:37:02;;;;;;;66.22;26.58;;;;;;;;;;5013274;28;20233;-67
2022/11/26 10:39:28;;;;;;;65.55;25.95;;;;;;;;;;5010139;28;20179;-67
2022/11/26 10:41:53;;;;;;;57.33;25.50;;;;;;;;;;5014223;28;20242;-67
2022/11/26 10:44:36;;;;;;;59.95;25.65;;;;;;;;;;5014077;28;20197;-67
2022/11/26 10:47:25;;;;;;;53.33;24.67;;;;;;;;;;5013487;28;20202;-67
2022/11/26 10:49:53;;;;;;;58.35;24.88;;;;;;;;;;5007658;28;20256;-68
2022/11/26 10:52:25;;;;;;;54.15;23.63;;;;;;;;;;5009603;28;20274;-67
2022/11/26 10:55:28;;;;;;;54.03;25.63;;;;;;;;;;5008862;28;20882;-68
2022/11/26 10:58:01;;;;;;;55.20;24.75;;;;;;;;;;5015796;28;20276;-68
2022/11/26 11:01:03;;;;;;;60.63;23.98;;;;;;;;;;5012905;28;20331;-69
2022/11/26 11:03:38;;;;;;;48.70;23.65;;;;;;;;;;5006532;28;20256;-68
2022/11/26 11:06:11;;;;;;;54.63;22.70;;;;;;;;;;5006240;28;20178;-68
2022/11/26 11:08:36;;;;;;;46.08;22.10;;;;;;;;;;5007137;28;20595;-68
2022/11/26 11:11:03;;;;;;;53.30;22.88;;;;;;;;;;5008593;28;20256;-68
2022/11/26 11:13:40;;;;;;;45.25;21.15;;;;;;;;;;5009919;28;20698;-68
2022/11/26 11:16:07;;;;;;;39.22;20.88;;;;;;;;;;5017201;28;20214;-69
2022/11/26 11:18:34;;;;;;;48.42;21.73;;;;;;;;;;5012738;28;20179;-69
2022/11/26 11:21:03;;;;;;;47.53;21.42;;;;;;;;;;5010091;28;20194;-68
2022/11/26 11:23:36;;;;;;;47.65;20.52;;;;;;;;;;5010865;28;20190;-69
2022/11/26 11:26:21;;;;;;;46.78;20.13;;;;;;;;;;5009678;28;20624;-69
2022/11/26 11:28:52;;;;;;;49.22;20.63;;;;;;;;;;5009273;28;20202;-68
2022/11/26 11:31:23;;;;;;;37.60;18.00;;;;;;;;;;5023032;28;20182;-68
2022/11/26 11:33:49;;;;;;;43.42;18.33;;;;;;;;;;5009606;28;20179;-68
2022/11/26 11:36:25;;;;;;;43.25;17.55;;;;;;;;;;5007960;28;20313;-68
2022/11/26 11:38:56;;;;;;;40.05;16.95;;;;;;;;;;5015190;28;20715;-68
2022/11/26 11:41:45;;;;;;;40.58;17.27;;;;;;;;;;5011014;28;20531;-68
2022/11/26 11:44:24;;;;;;;28.73;15.32;;;;;;;;;;5010517;28;20218;-68
2022/11/26 11:47:05;;;;;;;39.83;16.13;;;;;;;;;;5009097;28;20748;-68
2022/11/26 11:49:33;;;;;;;36.58;15.82;;;;;;;;;;5013961;28;20185;-68
2022/11/26 11:52:05;;;;;;;33.90;15.63;;;;;;;;;;5012598;28;20185;-68
2022/11/26 11:54:47;;;;;;;40.00;15.43;;;;;;;;;;5013813;28;20183;-68
2022/11/26 11:57:33;;;;;;;38.55;14.35;;;;;;;;;;5014013;28;20569;-68
2022/11/26 12:00:17;;;;;;;33.20;14.23;;;;;;;;;;5012144;28;20209;-68
2022/11/26 12:03:10;;;;;;;35.00;14.63;;;;;;;;;;5013955;28;20181;-68
2022/11/26 12:05:46;;;;;;;37.75;15.25;;;;;;;;;;5017110;28;20178;-68
2022/11/26 12:08:25;;;;;;;31.67;14.15;;;;;;;;;;5027732;28;20622;-68
2022/11/26 12:11:04;;;;;;;44.20;14.38;;;;;;;;;;5016133;28;20269;-67
2022/11/26 12:13:33;;;;;;;39.03;12.63;;;;;;;;;;5012810;28;20187;-68
2022/11/26 12:16:04;;;;;;;31.20;13.57;;;;;;;;;;5022439;28;20256;-68
2022/11/26 12:18:52;;;;;;;42.80;13.75;;;;;;;;;;5015644;28;20182;-67
2022/11/26 12:21:29;;;;;;;35.75;13.38;;;;;;;;;;5017019;28;20424;-67
2022/11/26 12:24:03;;;;;;;31.63;13.07;;;;;;;;;;5025966;28;20196;-67
2022/11/26 12:26:37;;;;;;;32.83;13.40;;;;;;;;;;5026211;28;20194;-67
2022/11/26 12:29:05;;;;;;;30.88;12.88;;;;;;;;;;5012881;28;20277;-67
2022/11/26 12:31:37;;;;;;;31.50;12.02;;;;;;;;;;5024561;28;20241;-67
2022/11/26 12:34:23;;;;;;;28.60;12.60;;;;;;;;;;5024917;28;20189;-67
2022/11/26 12:37:02;;;;;;;34.65;12.82;;;;;;;;;;5020274;28;20253;-67
2022/11/26 12:39:44;;;;;;;31.83;12.90;;;;;;;;;;5019385;28;20213;-68
2022/11/26 12:42:25;;;;;;;33.35;13.00;;;;;;;;;;5016959;28;20178;-68
2022/11/26 12:44:52;;;;;;;32.10;12.95;;;;;;;;;;5026899;28;20236;-68
2022/11/26 12:47:17;;;;;;;33.08;12.65;;;;;;;;;;5014152;28;20178;-69
2022/11/26 12:50:01;;;;;;;35.00;12.45;;;;;;;;;;5017102;28;20654;-68
2022/11/26 12:52:45;;;;;;;35.08;13.13;;;;;;;;;;5021895;28;20547;-68
2022/11/26 12:55:20;;;;;;;31.95;12.57;;;;;;;;;;5016223;28;20742;-68
2022/11/26 12:57:54;;;;;;;36.03;13.50;;;;;;;;;;5012107;28;20437;-69
2022/11/26 13:00:22;;;;;;;35.28;12.80;;;;;;;;;;5022515;28;20193;-68
2022/11/26 13:02:49;;;;;;;36.33;13.85;;;;;;;;;;5023284;28;20182;-68
2022/11/26 13:05:43;;;;;;;37.75;13.57;;;;;;;;;;5025663;28;20186;-68
2022/11/26 13:08:17;;;;;;;35.03;13.88;;;;;;;;;;5006997;28;20224;-68
2022/11/26 13:11:20;;;;;;;33.17;12.88;;;;;;;;;;5029297;28;20205;-69
2022/11/26 13:14:06;;;;;;;31.13;13.15;;;;;;;;;;5018307;28;20296;-68
2022/11/26 13:16:37;;;;;;;31.20;12.80;;;;;;;;;;5011888;28;20253;-68
2022/11/26 13:19:28;;;;;;;31.42;12.88;;;;;;;;;;5011620;28;20282;-68
2022/11/26 13:22:31;;;;;;;34.92;12.70;;;;;;;;;;5022105;28;20691;-68
2022/11/26 13:25:34;;;;;;;36.05;12.40;;;;;;;;;;5025269;28;20177;-68
2022/11/26 13:28:08;;;;;;;28.35;11.55;;;;;;;;;;5029894;28;20272;-68
2022/11/26 13:31:07;;;;;;;39.35;13.32;;;;;;;;;;5020336;28;20206;-68
2022/11/26 13:33:52;;;;;;;31.60;12.10;;;;;;;;;;5024660;28;20589;-67
2022/11/26 13:36:29;;;;;;;29.77;12.32;;;;;;;;;;5014293;28;20588;-67
2022/11/26 13:39:23;;;;;;;34.95;12.80;;;;;;;;;;5009674;28;20179;-68
2022/11/26 13:42:08;;;;;;;35.95;12.18;;;;;;;;;;5012348;28;20187;-68
2022/11/26 13:45:04;;;;;;;33.42;11.88;;;;;;;;;;5020661;28;20182;-67
2022/11/26 13:47:42;;;;;;;29.83;11.70;;;;;;;;;;5017707;28;20181;-67
2022/11/26 13:50:28;;;;;;;31.25;12.48;;;;;;;;;;5021952;28;20261;-67
2022/11/26 13:53:05;;;;;;;35.08;12.27;;;;;;;;;;5013095;28;20213;-68
2022/11/26 13:55:36;;;;;;;30.23;11.70;;;;;;;;;;5011704;28;20203;-68
2022/11/26 13:58:05;;;;;;;32.15;13.02;;;;;;;;;;5016331;28;20190;-67
2022/11/26 14:00:33;;;;;;;30.50;11.02;;;;;;;;;;5018601;28;20197;-67
2022/11/26 14:03:00;;;;;;;31.42;11.20;;;;;;;;;;5024206;28;20183;-68
2022/11/26 14:05:47;;;;;;;33.38;11.77;;;;;;;;;;5019186;28;20224;-67
2022/11/26 14:08:40;;;;;;;29.33;11.45;;;;;;;;;;5015996;28;20351;-68
2022/11/26 14:11:06;;;;;;;23.70;11.57;;;;;;;;;;5023873;28;20257;-68
2022/11/26 14:13:31;;;;;;;24.95;10.73;;;;;;;;;;5010703;28;20201;-68
2022/11/26 14:16:08;;;;;;;35.67;11.02;;;;;;;;;;5010335;28;20210;-67
2022/11/26 14:18:50;;;;;;;35.17;11.85;;;;;;;;;;5007794;28;20209;-68
2022/11/26 14:21:17;;;;;;;28.17;11.50;;;;;;;;;;5008966;28;20716;-68
2022/11/26 14:23:47;;;;;;;28.67;10.70;;;;;;;;;;5011383;28;20186;-67
2022/11/26 14:26:23;;;;;;;35.72;11.70;;;;;;;;;;5012292;28;20263;-67
2022/11/26 14:28:49;;;;;;;32.25;10.40;;;;;;;;;;5009934;28;20174;-68
2022/11/26 14:31:24;;;;;;;33.60;11.52;;;;;;;;;;5011088;28;20914;-68
2022/11/26 14:33:54;;;;;;;31.15;11.65;;;;;;;;;;5012476;28;20262;-66